aviador You're here:

SBCG Decoded Metar

CAMPO GRANDE in BRAZIL
Report Time2017-08-24 08:00:00
UTC Time2017-08-24 08:50:49
Flight Rules vfr VFR
Wind080° at 08 kt
W.Decomp.*RWY 06: 6.5 kt HW 4.7 kt RCW
W.Rank080° ranks 2
Current wind is below 080° avg. (8.5)
Visibility9999 m
Phenomena:N/A
Clouds:N/A
Expected CloudBase > 3,200 ft AGL from Temp-Dew spread
CeilingNone
Temp22°C (ISA +11)
Dew Point14°C (61% RH)
AAT20.4°C
QNH1016 hPa
Density Alt3,222 ft
Elevation1,860 ft
Report Wrong Elevation
Raw Report
METAR SBCG 240800Z 08008KT CAVOK 22/14 Q1016=

Extra information for SBCG:More info

Metar Taf Metar & Taf Last 4 Metars F.Rules Stats Wind Profile Meteogram Temp Stats Airport Information Weather charts Add Link Nearby VenuesMetar ALERT Operation Metar Decoded Social comments